Time;durP1;ratioP1;P1;durP2;ratioP2;P2;SDS_P1;SDS_P2;PMS_P1;PMS_P2;Temp;Humidity;BMP_temperature;BMP_pressure;BME280_temperature;BME280_humidity;BME280_pressure;Samples;Min_cycle;Max_cycle;Signal;HPM_P1;HPM_P2
2023/06/26 00:02:12;;;;;;;8.13;5.88;;;;;;;22.21;64.43;100834.13;5036599;28;20044;-64
2023/06/26 00:04:38;;;;;;;6.90;5.65;;;;;;;22.17;64.94;100826.50;5034667;28;20043;-64
2023/06/26 00:07:06;;;;;;;8.80;6.07;;;;;;;22.13;65.41;100824.94;5035940;28;20103;-64
2023/06/26 00:09:32;;;;;;;6.63;5.80;;;;;;;22.04;65.96;100813.16;5034839;28;20049;-64
2023/06/26 00:11:59;;;;;;;7.57;6.10;;;;;;;21.98;66.47;100812.63;5035730;28;20041;-63
2023/06/26 00:14:25;;;;;;;7.30;5.90;;;;;;;21.91;67.99;100821.81;5019293;28;20528;-63
2023/06/26 00:16:51;;;;;;;7.97;6.40;;;;;;;21.82;68.36;100813.44;5036039;28;20040;-63
2023/06/26 00:19:17;;;;;;;6.63;5.68;;;;;;;21.74;68.50;100807.75;5011135;28;20037;-64
2023/06/26 00:21:46;;;;;;;7.80;6.80;;;;;;;21.67;68.78;100810.81;5034977;28;20103;-64
2023/06/26 00:24:12;;;;;;;9.90;6.10;;;;;;;21.64;68.75;100797.81;5035942;28;20461;-64
2023/06/26 00:26:37;;;;;;;7.07;6.20;;;;;;;21.62;68.64;100799.66;5032249;28;20033;-63
2023/06/26 00:29:03;;;;;;;7.35;6.53;;;;;;;21.60;68.73;100793.66;5035026;28;20033;-63
2023/06/26 00:31:28;;;;;;;8.10;6.40;;;;;;;21.56;68.52;100797.34;5034126;28;20036;-63
2023/06/26 00:33:53;;;;;;;6.05;5.20;;;;;;;21.51;68.65;100794.94;5036877;28;20158;-63
2023/06/26 00:36:19;;;;;;;7.30;5.82;;;;;;;21.49;68.72;100791.53;5033019;28;20045;-64
2023/06/26 00:38:44;;;;;;;6.55;5.13;;;;;;;21.45;68.84;100792.66;5035411;28;20642;-63
2023/06/26 00:41:12;;;;;;;9.10;5.65;;;;;;;21.43;68.01;100784.00;5036105;28;20387;-63
2023/06/26 00:43:38;;;;;;;7.20;5.97;;;;;;;21.41;67.53;100784.97;5036435;28;20029;-64
2023/06/26 00:46:03;;;;;;;6.60;5.60;;;;;;;21.37;67.13;100772.94;5015984;28;20040;-63
2023/06/26 00:48:29;;;;;;;8.13;5.85;;;;;;;21.34;67.12;100778.38;5035689;28;20048;-64
2023/06/26 00:50:55;;;;;;;6.85;5.28;;;;;;;21.32;66.84;100777.56;5036434;28;20041;-63
2023/06/26 00:53:21;;;;;;;7.03;5.47;;;;;;;21.33;66.33;100766.13;5033941;28;20024;-63
2023/06/26 00:55:47;;;;;;;9.18;6.53;;;;;;;21.33;66.62;100764.38;5033138;28;20064;-64
2023/06/26 00:58:12;;;;;;;7.25;5.60;;;;;;;21.31;66.82;100768.88;5034139;28;20395;-64
2023/06/26 01:00:38;;;;;;;7.07;5.28;;;;;;;21.28;66.87;100771.66;5030999;28;20098;-64
2023/06/26 01:03:03;;;;;;;7.30;5.88;;;;;;;21.23;66.98;100774.50;5033302;28;20044;-63
2023/06/26 01:05:29;;;;;;;7.15;5.22;;;;;;;21.19;67.51;100777.38;5034935;28;20047;-63
2023/06/26 01:07:56;;;;;;;7.03;5.53;;;;;;;21.14;67.81;100776.75;5036109;28;20776;-64
2023/06/26 01:10:22;;;;;;;7.68;5.90;;;;;;;21.08;67.80;100772.66;5036624;28;20586;-64
2023/06/26 01:12:48;;;;;;;7.32;6.07;;;;;;;21.06;67.65;100774.53;5031969;28;20071;-64
2023/06/26 01:15:13;;;;;;;6.93;5.80;;;;;;;21.03;67.79;100773.84;5016902;28;20788;-64
2023/06/26 01:17:40;;;;;;;8.20;5.47;;;;;;;20.99;68.02;100773.13;5034287;28;20032;-64
2023/06/26 01:20:09;;;;;;;6.95;5.32;;;;;;;20.96;68.11;100772.44;5033842;28;20029;-64
2023/06/26 01:22:53;;;;;;;8.45;6.10;;;;;;;20.93;68.03;100772.63;5038078;28;20056;-64
2023/06/26 01:25:29;;;;;;;7.25;5.90;;;;;;;20.91;68.33;100772.69;5031280;28;20044;-62
2023/06/26 01:27:56;;;;;;;8.52;5.90;;;;;;;20.91;68.45;100772.69;5027087;28;20099;-62
2023/06/26 01:30:22;;;;;;;7.13;5.53;;;;;;;20.90;68.79;100765.72;5028688;28;20041;-62
2023/06/26 01:32:49;;;;;;;8.45;5.63;;;;;;;20.85;69.00;100770.38;5037066;28;20120;-62
2023/06/26 01:35:15;;;;;;;7.38;6.25;;;;;;;20.80;69.47;100763.66;5032627;28;20091;-62
2023/06/26 01:37:40;;;;;;;9.23;6.45;;;;;;;20.74;70.18;100770.06;5035314;28;20531;-62
2023/06/26 01:40:07;;;;;;;7.60;6.65;;;;;;;20.70;70.19;100766.72;5034892;28;20033;-62
2023/06/26 01:42:33;;;;;;;8.55;6.50;;;;;;;20.70;70.31;100758.84;5035353;28;21147;-62
2023/06/26 01:45:20;;;;;;;8.68;6.43;;;;;;;20.66;70.84;100761.69;5038228;28;20102;-62
2023/06/26 01:47:50;;;;;;;6.55;5.85;;;;;;;20.61;70.95;100758.41;5038578;28;20045;-63
2023/06/26 01:50:24;;;;;;;8.70;6.47;;;;;;;20.58;71.02;100761.19;5038188;28;20033;-62
2023/06/26 01:53:18;;;;;;;7.05;5.63;;;;;;;20.51;70.97;100762.44;5039918;28;20048;-62
2023/06/26 01:55:49;;;;;;;7.75;5.57;;;;;;;20.45;71.09;100763.56;5037053;28;20126;-62
2023/06/26 01:58:16;;;;;;;7.05;5.40;;;;;;;20.43;70.59;100757.56;5037556;28;20044;-62
2023/06/26 02:00:42;;;;;;;6.22;5.22;;;;;;;20.42;70.76;100758.47;5034836;28;20041;-62
2023/06/26 02:03:08;;;;;;;7.18;5.43;;;;;;;20.41;70.76;100759.41;5044267;28;20095;-62
2023/06/26 02:05:33;;;;;;;8.27;5.90;;;;;;;20.43;70.72;100760.19;5040899;28;20131;-63
2023/06/26 02:08:01;;;;;;;7.75;5.88;;;;;;;20.42;70.82;100753.22;5039497;28;20113;-62
2023/06/26 02:10:26;;;;;;;10.32;6.60;;;;;;;20.40;71.12;100762.94;5042534;28;20051;-62
2023/06/26 02:12:51;;;;;;;8.98;7.53;;;;;;;20.40;71.44;100764.72;5039688;28;20358;-62
2023/06/26 02:15:17;;;;;;;8.65;6.28;;;;;;;20.37;71.63;100760.47;5038362;28;20650;-62
2023/06/26 02:17:42;;;;;;;7.18;5.97;;;;;;;20.33;71.69;100760.72;5039706;28;20033;-62
2023/06/26 02:20:10;;;;;;;8.35;6.07;;;;;;;20.30;71.52;100755.59;5044489;28;20036;-62
2023/06/26 02:22:35;;;;;;;7.47;6.30;;;;;;;20.28;71.82;100760.91;5044691;28;20502;-62
2023/06/26 02:25:00;;;;;;;6.60;5.88;;;;;;;20.26;71.90;100775.03;5043766;28;20041;-62
2023/06/26 02:27:26;;;;;;;8.43;5.88;;;;;;;20.25;71.95;100787.31;5045281;28;20037;-62
2023/06/26 02:29:51;;;;;;;6.80;5.60;;;;;;;20.32;71.41;100801.00;5038905;28;20044;-62
2023/06/26 02:32:17;;;;;;;7.93;6.28;;;;;;;20.42;70.58;100797.03;5045449;28;20035;-62
2023/06/26 02:34:42;;;;;;;8.23;6.13;;;;;;;20.49;70.17;100775.63;5024411;28;20037;-62
2023/06/26 02:37:07;;;;;;;7.40;6.18;;;;;;;20.53;69.61;100769.31;5042766;28;20148;-62
2023/06/26 02:39:34;;;;;;;6.78;5.80;;;;;;;20.50;69.54;100769.47;5041254;28;20072;-62
2023/06/26 02:41:59;;;;;;;7.82;6.03;;;;;;;20.48;69.64;100768.66;5042451;28;20037;-62
2023/06/26 02:44:25;;;;;;;7.20;5.65;;;;;;;20.47;69.43;100769.63;5044963;28;20058;-62
2023/06/26 02:46:50;;;;;;;9.10;6.20;;;;;;;20.45;69.44;100765.38;5044406;28;20029;-62
2023/06/26 02:49:15;;;;;;;6.05;5.10;;;;;;;20.43;69.21;100773.31;5045496;28;20120;-62
2023/06/26 02:51:41;;;;;;;7.50;5.40;;;;;;;20.41;69.19;100780.41;5039695;28;20037;-62
2023/06/26 02:54:06;;;;;;;6.18;5.28;;;;;;;20.39;68.73;100774.41;5036258;28;20041;-62
2023/06/26 02:56:32;;;;;;;7.03;5.60;;;;;;;20.38;68.46;100774.47;5020751;28;20045;-62
2023/06/26 02:58:57;;;;;;;6.80;5.93;;;;;;;20.43;67.15;100765.44;5045031;28;20562;-62
2023/06/26 03:01:23;;;;;;;6.22;5.00;;;;;;;20.43;66.67;100765.44;5038764;28;20076;-62
2023/06/26 03:03:48;;;;;;;7.53;5.13;;;;;;;20.41;66.28;100769.91;5042628;28;20051;-62
2023/06/26 03:06:14;;;;;;;6.88;5.32;;;;;;;20.42;65.81;100774.22;5042060;28;20663;-62
2023/06/26 03:08:40;;;;;;;6.07;4.90;;;;;;;20.46;65.32;100775.78;5038571;28;20409;-62
2023/06/26 03:11:06;;;;;;;6.57;5.03;;;;;;;20.50;64.96;100771.25;5039988;28;20025;-62
2023/06/26 03:13:33;;;;;;;5.82;4.85;;;;;;;20.48;64.95;100773.91;5037136;28;20584;-62
2023/06/26 03:15:58;;;;;;;6.78;5.57;;;;;;;20.51;65.26;100783.44;5032578;28;20041;-62
2023/06/26 03:18:24;;;;;;;6.40;5.13;;;;;;;20.50;65.64;100800.13;5030861;28;20040;-62
2023/06/26 03:20:49;;;;;;;7.65;5.95;;;;;;;20.52;65.91;100799.13;5034592;28;20099;-62
2023/06/26 03:23:15;;;;;;;9.73;6.28;;;;;;;20.50;66.64;100810.63;5037171;28;20839;-62
2023/06/26 03:25:40;;;;;;;7.68;5.78;;;;;;;20.48;66.63;100815.13;5039117;28;20119;-62
2023/06/26 03:28:05;;;;;;;9.07;6.40;;;;;;;20.50;66.59;100816.75;5036684;28;20106;-62
2023/06/26 03:30:31;;;;;;;8.82;5.78;;;;;;;20.51;66.35;100820.22;5026543;28;20052;-62
2023/06/26 03:32:56;;;;;;;7.13;6.07;;;;;;;20.58;66.22;100813.72;5031886;28;20682;-62
2023/06/26 03:35:22;;;;;;;7.65;5.93;;;;;;;20.64;65.94;100814.28;5037241;28;20191;-62
2023/06/26 03:37:48;;;;;;;7.25;5.20;;;;;;;20.70;65.83;100810.53;5037962;28;20112;-62
2023/06/26 03:40:14;;;;;;;6.35;5.22;;;;;;;20.72;65.80;100811.28;5035781;28;20044;-62
2023/06/26 03:42:39;;;;;;;6.13;5.18;;;;;;;20.77;65.81;100816.34;5034412;28;20037;-62
2023/06/26 03:45:05;;;;;;;7.03;5.82;;;;;;;20.78;66.07;100812.78;5037192;28;20132;-62
2023/06/26 03:47:31;;;;;;;8.38;5.60;;;;;;;20.85;65.52;100815.03;5035426;28;20394;-62
2023/06/26 03:49:56;;;;;;;6.45;5.30;;;;;;;20.91;65.55;100814.72;5036438;28;20553;-62
2023/06/26 03:52:22;;;;;;;6.68;4.78;;;;;;;20.97;65.66;100821.44;5035466;28;20099;-62
2023/06/26 03:54:48;;;;;;;7.60;5.25;;;;;;;21.03;65.60;100826.41;5013487;28;20757;-62
2023/06/26 03:57:14;;;;;;;7.85;5.60;;;;;;;21.09;65.62;100828.72;5033673;28;20036;-63
2023/06/26 03:59:39;;;;;;;6.35;4.53;;;;;;;21.25;65.11;100821.75;5030783;28;20032;-62
2023/06/26 04:02:05;;;;;;;8.50;5.03;;;;;;;21.42;64.24;100810.34;5016977;28;20164;-62
2023/06/26 04:04:30;;;;;;;6.45;5.40;;;;;;;21.63;63.97;100814.53;5032986;28;20117;-62
2023/06/26 04:06:55;;;;;;;5.75;5.10;;;;;;;21.84;62.81;100805.50;5034400;28;20071;-62
2023/06/26 04:09:21;;;;;;;6.70;5.30;;;;;;;22.04;61.96;100792.09;5038176;28;20041;-63
2023/06/26 04:11:46;;;;;;;5.80;5.20;;;;;;;22.23;61.57;100787.47;5036888;28;20789;-62
2023/06/26 04:14:12;;;;;;;5.47;4.47;;;;;;;22.38;60.75;100790.22;5039123;28;20045;-62
2023/06/26 04:16:38;;;;;;;7.45;4.80;;;;;;;22.54;60.69;100791.91;5041284;28;20048;-62
2023/06/26 04:19:04;;;;;;;7.03;5.20;;;;;;;22.69;60.09;100788.38;5035185;28;20533;-62
2023/06/26 04:21:30;;;;;;;5.53;4.72;;;;;;;22.78;60.18;100790.50;5037766;28;20128;-62
2023/06/26 04:23:56;;;;;;;10.77;5.40;;;;;;;22.85;59.95;100791.00;5037803;28;20154;-62
2023/06/26 04:26:21;;;;;;;7.13;5.22;;;;;;;22.89;60.05;100806.53;5037035;28;20771;-61
2023/06/26 04:28:47;;;;;;;9.85;5.40;;;;;;;22.92;59.84;100800.22;5042267;28;20020;-62
2023/06/26 04:31:12;;;;;;;7.57;5.28;;;;;;;22.95;59.86;100810.59;5038220;28;20562;-62
2023/06/26 04:33:38;;;;;;;7.43;5.60;;;;;;;23.01;59.86;100820.78;5040053;28;20768;-62
2023/06/26 04:36:04;;;;;;;5.95;5.07;;;;;;;23.07;59.81;100809.88;5043053;28;20037;-62
2023/06/26 04:38:30;;;;;;;6.60;5.57;;;;;;;23.18;59.71;100817.19;5035301;28;20037;-62
2023/06/26 04:40:56;;;;;;;7.90;5.30;;;;;;;23.26;59.66;100817.56;5038669;28;20474;-62
2023/06/26 04:43:21;;;;;;;8.65;5.78;;;;;;;23.31;59.51;100823.41;5035550;28;20049;-62
2023/06/26 04:45:47;;;;;;;6.95;5.30;;;;;;;23.34;59.10;100816.16;5038998;28;20043;-63
2023/06/26 04:48:13;;;;;;;8.55;5.57;;;;;;;23.31;59.40;100823.41;5036429;28;20532;-64
2023/06/26 04:50:38;;;;;;;7.78;5.55;;;;;;;23.35;59.50;100825.78;5037485;28;20033;-63
2023/06/26 04:53:03;;;;;;;11.25;6.18;;;;;;;23.41;59.32;100835.97;5040523;28;20144;-63
2023/06/26 04:55:30;;;;;;;8.68;5.50;;;;;;;23.41;59.10;100835.97;5033600;28;20232;-63
2023/06/26 04:57:55;;;;;;;6.70;5.25;;;;;;;23.34;59.57;100847.81;5036501;28;20037;-63
2023/06/26 05:00:21;;;;;;;9.13;5.43;;;;;;;23.31;59.61;100845.38;5033103;28;20741;-63
2023/06/26 05:02:46;;;;;;;6.45;5.45;;;;;;;23.28;59.91;100856.09;5037092;28;20737;-64
2023/06/26 05:05:12;;;;;;;10.07;5.32;;;;;;;23.23;59.42;100852.91;5035519;28;20779;-63
2023/06/26 05:07:42;;;;;;;8.13;5.65;;;;;;;23.24;60.10;100853.75;5032955;28;20044;-63
2023/06/26 05:10:08;;;;;;;8.98;5.00;;;;;;;23.19;59.81;100859.28;5032751;28;20039;-62
2023/06/26 05:12:33;;;;;;;8.80;4.40;;;;;;;23.15;60.38;100872.72;5031846;28;20037;-63
2023/06/26 05:14:59;;;;;;;5.90;5.05;;;;;;;23.18;60.05;100869.94;5033006;28;20045;-63
2023/06/26 05:17:24;;;;;;;8.40;4.95;;;;;;;23.17;59.39;100858.50;5032676;28;20044;-63
2023/06/26 05:19:49;;;;;;;9.10;5.50;;;;;;;23.20;59.70;100861.00;5032262;28;20037;-63
2023/06/26 05:22:16;;;;;;;6.90;5.15;;;;;;;23.35;59.68;100861.88;5033924;28;20037;-62
2023/06/26 05:24:46;;;;;;;8.05;5.15;;;;;;;23.54;59.27;100866.91;5033989;28;20641;-63
2023/06/26 05:27:19;;;;;;;9.02;5.30;;;;;;;23.54;58.85;100851.06;5036500;28;20095;-63
2023/06/26 05:29:44;;;;;;;6.85;5.10;;;;;;;23.54;58.69;100859.81;5035950;28;20044;-64
2023/06/26 05:32:11;;;;;;;8.63;5.35;;;;;;;23.58;59.00;100860.47;5032032;28;20029;-63
2023/06/26 05:34:37;;;;;;;9.77;5.90;;;;;;;23.43;58.34;100851.69;5035632;28;20033;-63
2023/06/26 05:37:03;;;;;;;8.43;4.88;;;;;;;23.36;58.54;100850.38;5033167;28;20875;-62
2023/06/26 05:39:29;;;;;;;10.15;5.28;;;;;;;23.30;59.00;100871.84;5031450;28;20047;-62
2023/06/26 05:41:56;;;;;;;11.65;4.85;;;;;;;23.34;59.43;100879.47;5033259;28;20038;-63
2023/06/26 05:44:21;;;;;;;7.95;4.63;;;;;;;23.43;58.47;100863.09;5032140;28;20029;-63
2023/06/26 05:46:47;;;;;;;10.65;5.05;;;;;;;23.51;58.50;100872.34;5033342;28;20055;-63
2023/06/26 05:49:12;;;;;;;7.05;4.72;;;;;;;23.38;58.23;100865.19;5032622;28;20045;-63
2023/06/26 05:51:38;;;;;;;7.55;5.28;;;;;;;23.28;58.87;100874.56;5031551;28;20536;-63
2023/06/26 05:54:03;;;;;;;7.88;4.50;;;;;;;23.31;59.19;100877.03;5037076;28;20041;-63
2023/06/26 05:56:29;;;;;;;8.63;4.95;;;;;;;23.45;58.46;100871.75;5026736;28;20060;-63
2023/06/26 05:58:56;;;;;;;8.45;5.28;;;;;;;23.43;58.36;100868.38;5032352;28;20067;-63
2023/06/26 06:01:21;;;;;;;7.30;4.50;;;;;;;23.35;58.61;100873.28;5034326;28;20861;-63
2023/06/26 06:03:47;;;;;;;9.27;4.75;;;;;;;23.18;59.48;100899.78;5014177;28;20044;-63
2023/06/26 06:06:12;;;;;;;5.68;4.38;;;;;;;23.11;60.04;100911.59;5038239;28;20044;-63
2023/06/26 06:08:38;;;;;;;8.23;4.65;;;;;;;23.11;60.32;100918.66;5034949;28;20036;-62
2023/06/26 06:11:03;;;;;;;5.90;4.18;;;;;;;23.32;59.16;100896.34;5029670;28;20025;-63
2023/06/26 06:13:29;;;;;;;7.68;4.65;;;;;;;23.57;58.23;100888.66;5037984;28;20032;-63
2023/06/26 06:15:55;;;;;;;7.82;4.43;;;;;;;23.65;57.99;100881.13;5040368;28;20126;-63
2023/06/26 06:18:20;;;;;;;7.50;4.43;;;;;;;23.72;58.53;100902.75;5031645;28;20089;-64
2023/06/26 06:20:46;;;;;;;6.55;3.92;;;;;;;23.80;58.11;100897.84;5034186;28;20721;-63
2023/06/26 06:23:11;;;;;;;6.32;3.50;;;;;;;23.84;58.18;100909.88;5012814;28;20034;-64
2023/06/26 06:25:36;;;;;;;7.00;3.88;;;;;;;23.78;58.06;100907.63;5034215;28;20064;-64
2023/06/26 06:28:02;;;;;;;10.70;5.25;;;;;;;23.52;58.95;100916.25;5035124;28;20072;-62
2023/06/26 06:30:27;;;;;;;8.57;4.75;;;;;;;23.19;59.89;100932.28;5037138;28;20112;-63
2023/06/26 06:32:53;;;;;;;6.47;4.30;;;;;;;23.03;60.75;100960.44;5035698;28;20048;-62
2023/06/26 06:35:19;;;;;;;7.28;4.55;;;;;;;22.98;61.00;100954.59;5041290;28;20028;-63
2023/06/26 06:37:44;;;;;;;7.88;4.80;;;;;;;23.09;61.45;100945.13;5036647;28;20783;-63
2023/06/26 06:40:10;;;;;;;7.20;4.20;;;;;;;23.27;60.30;100949.34;5033230;28;20139;-61
2023/06/26 06:42:36;;;;;;;10.00;4.85;;;;;;;23.30;61.50;100958.91;5036835;28;20033;-62
2023/06/26 06:45:02;;;;;;;11.35;5.15;;;;;;;23.41;61.08;100956.47;5017640;28;20047;-62
2023/06/26 06:47:28;;;;;;;9.80;4.50;;;;;;;23.44;60.34;100946.59;5036421;28;20043;-60
2023/06/26 06:49:53;;;;;;;15.32;5.03;;;;;;;23.56;60.09;100957.38;5036006;28;20719;-62
2023/06/26 06:52:18;;;;;;;7.40;4.22;;;;;;;23.53;60.27;100954.91;5032088;28;20037;-62
2023/06/26 06:54:54;;;;;;;9.55;4.63;;;;;;;23.39;60.27;100953.91;5034083;28;20061;-61
2023/06/26 06:57:20;;;;;;;7.15;4.57;;;;;;;23.33;60.81;100967.47;5034395;28;20845;-62
2023/06/26 06:59:47;;;;;;;8.20;4.25;;;;;;;23.16;61.38;100982.50;5032376;28;20052;-62
2023/06/26 07:02:13;;;;;;;13.98;4.78;;;;;;;23.20;61.46;100982.31;5035042;28;20025;-62
2023/06/26 07:04:38;;;;;;;8.98;4.07;;;;;;;23.34;60.98;100971.81;5032354;28;20037;-62
2023/06/26 07:07:04;;;;;;;12.43;4.72;;;;;;;23.43;60.88;100976.56;5034016;28;20064;-62
2023/06/26 07:09:29;;;;;;;6.72;4.03;;;;;;;23.55;60.72;100969.72;5032693;28;20172;-62
2023/06/26 07:11:54;;;;;;;6.72;4.00;;;;;;;23.55;60.81;100977.63;5035269;28;20045;-62
2023/06/26 07:14:20;;;;;;;11.88;5.07;;;;;;;23.33;60.78;100991.19;5032664;28;20037;-62
2023/06/26 07:16:45;;;;;;;9.50;4.38;;;;;;;23.01;61.71;101007.97;5035158;28;20044;-62
2023/06/26 07:19:10;;;;;;;8.65;4.35;;;;;;;23.03;62.31;101003.47;5035462;28;20103;-63
2023/06/26 07:21:36;;;;;;;13.00;4.75;;;;;;;23.06;62.05;101016.50;5035094;28;20061;-62
2023/06/26 07:24:01;;;;;;;6.07;4.18;;;;;;;23.05;62.15;101024.47;5033475;28;20549;-62
2023/06/26 07:26:27;;;;;;;9.95;4.13;;;;;;;23.14;62.16;101027.44;5019798;28;20037;-62
2023/06/26 07:28:52;;;;;;;8.98;4.00;;;;;;;23.09;61.87;101023.38;5030334;28;20490;-62
2023/06/26 07:31:17;;;;;;;10.88;4.53;;;;;;;23.09;61.92;101016.31;5031543;28;20972;-62
2023/06/26 07:33:43;;;;;;;7.25;3.70;;;;;;;23.26;62.03;101025.94;5034073;28;20076;-62
2023/06/26 07:36:08;;;;;;;9.00;4.28;;;;;;;23.42;60.99;101016.22;5034748;28;20076;-62
2023/06/26 07:38:34;;;;;;;12.30;4.75;;;;;;;23.41;61.36;101019.78;5012773;28;20497;-63
2023/06/26 07:40:59;;;;;;;9.68;4.60;;;;;;;23.20;61.89;101027.13;5037732;28;20382;-62
2023/06/26 07:43:24;;;;;;;10.93;5.10;;;;;;;23.16;62.72;101048.44;5032792;28;20045;-63
2023/06/26 07:45:51;;;;;;;8.55;4.85;;;;;;;23.34;62.63;101027.19;5032207;28;20037;-62
2023/06/26 07:48:16;;;;;;;8.57;5.00;;;;;;;23.54;62.21;101031.31;5015285;28;20633;-62
2023/06/26 07:50:42;;;;;;;8.52;5.20;;;;;;;23.59;61.36;101029.28;5028865;28;20043;-63
2023/06/26 07:53:07;;;;;;;6.97;4.57;;;;;;;23.77;60.82;101025.59;5034935;28;20899;-62
2023/06/26 07:55:32;;;;;;;11.32;5.25;;;;;;;23.75;60.03;101011.59;5026804;28;20051;-62
2023/06/26 07:57:58;;;;;;;15.38;5.20;;;;;;;23.86;60.13;101008.34;5033934;28;20767;-62
2023/06/26 08:00:23;;;;;;;12.70;5.72;;;;;;;23.87;60.04;101008.25;5034030;28;20052;-61
2023/06/26 08:02:49;;;;;;;9.73;4.85;;;;;;;23.99;60.48;101015.47;5034317;28;20153;-62
2023/06/26 08:05:14;;;;;;;9.00;4.78;;;;;;;23.87;59.93;101010.88;5033669;28;20068;-63
2023/06/26 08:07:40;;;;;;;13.80;5.63;;;;;;;23.82;59.91;101015.59;5034806;28;20033;-63
2023/06/26 08:10:05;;;;;;;10.88;5.07;;;;;;;23.67;60.61;101024.41;5034324;28;20037;-63
2023/06/26 08:12:31;;;;;;;18.55;6.43;;;;;;;23.88;60.33;101022.31;5027024;28;20473;-65
2023/06/26 08:14:56;;;;;;;14.65;4.93;;;;;;;24.17;59.55;101010.00;5032169;28;20033;-65
2023/06/26 08:17:21;;;;;;;8.32;4.57;;;;;;;24.11;60.00;101023.59;5030445;28;20053;-64
2023/06/26 08:19:47;;;;;;;14.70;5.20;;;;;;;24.20;59.67;101009.81;5036330;28;20242;-63
2023/06/26 08:22:12;;;;;;;11.15;5.55;;;;;;;24.11;59.29;101013.88;5032094;28;20037;-63
2023/06/26 08:24:38;;;;;;;9.15;4.60;;;;;;;24.40;58.67;101005.03;5034965;28;20048;-64
2023/06/26 08:27:03;;;;;;;10.25;4.30;;;;;;;24.61;58.33;100996.72;5032359;28;20092;-64
2023/06/26 08:29:29;;;;;;;9.38;4.60;;;;;;;24.53;57.11;100995.41;5033444;28;20029;-62
2023/06/26 08:31:54;;;;;;;10.35;4.65;;;;;;;24.32;56.99;100995.88;5031909;28;20033;-62
2023/06/26 08:34:19;;;;;;;10.00;4.75;;;;;;;24.39;57.29;101006.00;5034164;28;20409;-62
2023/06/26 08:36:45;;;;;;;11.57;5.20;;;;;;;24.40;57.71;101012.94;5032670;28;20037;-62
2023/06/26 08:39:10;;;;;;;7.60;5.05;;;;;;;24.42;56.96;101000.50;5032487;28;20567;-63
2023/06/26 08:41:36;;;;;;;7.80;4.35;;;;;;;24.30;57.14;101009.19;5016799;28;20029;-62
2023/06/26 08:44:04;;;;;;;11.73;4.88;;;;;;;24.38;57.71;101020.13;5034089;28;20076;-64
2023/06/26 08:46:30;;;;;;;9.77;4.40;;;;;;;24.48;57.29;101015.13;5030205;28;20044;-63
2023/06/26 08:49:00;;;;;;;7.97;4.32;;;;;;;24.65;56.55;101014.06;5014963;28;20045;-62
2023/06/26 08:51:28;;;;;;;9.90;4.72;;;;;;;24.61;56.52;101018.69;5030086;28;20047;-62
2023/06/26 08:54:00;;;;;;;8.38;3.70;;;;;;;24.89;56.46;101021.34;5035657;28;20461;-64
2023/06/26 08:56:31;;;;;;;11.93;3.97;;;;;;;24.95;55.63;101009.53;5015582;28;20032;-62
2023/06/26 08:58:57;;;;;;;5.35;3.40;;;;;;;24.87;55.14;101007.38;5031341;28;20708;-62
2023/06/26 09:01:24;;;;;;;8.20;4.05;;;;;;;24.62;55.49;101008.97;5031351;28;20048;-62
2023/06/26 09:03:50;;;;;;;7.60;3.78;;;;;;;24.61;55.07;101007.31;5038776;28;20045;-63
2023/06/26 09:06:15;;;;;;;9.20;3.92;;;;;;;24.68;54.96;101009.44;5033717;28;20175;-63
2023/06/26 09:08:42;;;;;;;7.53;3.78;;;;;;;24.88;55.45;101010.84;5031053;28;20749;-64
2023/06/26 09:11:07;;;;;;;10.07;3.67;;;;;;;25.15;54.14;101000.28;5032431;28;20028;-62
2023/06/26 09:13:34;;;;;;;9.35;3.45;;;;;;;25.03;54.37;101023.09;5032978;28;20143;-62
2023/06/26 09:15:59;;;;;;;9.70;3.83;;;;;;;25.01;53.79;101004.69;5033683;28;20840;-63
2023/06/26 09:18:24;;;;;;;11.18;3.88;;;;;;;25.08;53.58;101008.63;5032590;28;20037;-63
2023/06/26 09:20:50;;;;;;;6.70;3.60;;;;;;;25.18;53.97;100993.00;5032866;28;20785;-62
2023/06/26 09:23:16;;;;;;;9.63;3.95;;;;;;;24.85;54.52;101011.03;5029665;28;20136;-64
2023/06/26 09:25:42;;;;;;;8.93;3.38;;;;;;;24.62;54.22;101016.91;5031912;28;20095;-61
2023/06/26 09:28:08;;;;;;;9.80;4.18;;;;;;;24.90;54.26;101011.63;5032803;28;20044;-62
2023/06/26 09:30:34;;;;;;;11.63;3.83;;;;;;;25.05;53.85;101005.34;5033540;28;20506;-63
2023/06/26 09:33:16;;;;;;;13.85;4.00;;;;;;;24.61;54.57;101029.28;5032100;28;20128;-63
2023/06/26 09:35:43;;;;;;;7.65;3.72;;;;;;;24.48;55.45;101041.56;5034553;28;20046;-63
2023/06/26 09:38:08;;;;;;;6.78;2.97;;;;;;;24.72;53.52;101015.44;5032822;28;20104;-63
2023/06/26 09:40:35;;;;;;;7.55;3.42;;;;;;;24.81;53.29;101002.50;5034289;28;20051;-63
2023/06/26 09:43:13;;;;;;;9.23;3.45;;;;;;;24.86;51.92;100987.16;5034245;28;20189;-62
2023/06/26 09:45:39;;;;;;;7.50;2.95;;;;;;;24.86;52.17;100992.47;5032383;28;20047;-62
2023/06/26 09:48:07;;;;;;;7.97;3.08;;;;;;;25.08;52.46;101008.63;5033736;28;20072;-61
2023/06/26 09:50:37;;;;;;;8.00;3.75;;;;;;;25.23;51.02;100983.00;5032086;28;20036;-62
2023/06/26 09:53:11;;;;;;;5.85;2.92;;;;;;;25.48;50.93;100982.25;5033875;28;20031;-61
2023/06/26 09:55:36;;;;;;;12.50;2.90;;;;;;;;;;5029150;28;20044;-63
2023/06/26 09:58:03;;;;;;;8.18;3.13;;;;;;;25.52;49.40;100965.22;5032408;28;20037;-62
2023/06/26 10:00:30;;;;;;;8.65;3.25;;;;;;;25.50;49.39;100981.19;5031778;28;20160;-62
2023/06/26 10:02:56;;;;;;;8.63;3.22;;;;;;;25.59;49.63;100977.91;5035310;28;20037;-62
2023/06/26 10:05:21;;;;;;;6.85;3.17;;;;;;;25.43;50.33;101001.09;5023114;28;20052;-62
2023/06/26 10:07:47;;;;;;;9.88;2.88;;;;;;;25.41;50.97;101004.78;5023050;28;20044;-63
2023/06/26 10:10:16;;;;;;;7.35;3.13;;;;;;;25.52;49.26;100978.44;5038338;28;20067;-62
2023/06/26 10:12:45;;;;;;;7.95;3.38;;;;;;;25.40;48.30;100966.88;5029683;28;20970;-63
2023/06/26 10:15:13;;;;;;;12.35;3.60;;;;;;;25.46;49.74;101000.88;5033610;28;20036;-63
2023/06/26 10:17:41;;;;;;;7.53;3.28;;;;;;;25.46;49.17;100979.72;5040405;28;20735;-62
2023/06/26 10:20:09;;;;;;;7.88;3.50;;;;;;;25.62;48.77;100979.50;5018883;28;20047;-62
2023/06/26 10:22:41;;;;;;;9.35;2.72;;;;;;;25.67;48.25;100982.72;5034665;28;20041;-62
2023/06/26 10:25:09;;;;;;;7.97;2.88;;;;;;;25.82;48.02;100984.34;5033969;28;20047;-65
2023/06/26 10:27:40;;;;;;;8.05;3.15;;;;;;;25.99;48.03;100977.88;5035794;28;20132;-63
2023/06/26 10:30:12;;;;;;;7.47;2.47;;;;;;;25.87;46.39;100958.38;5035764;28;20063;-61
2023/06/26 10:32:39;;;;;;;7.47;2.60;;;;;;;25.89;46.29;100969.69;5041522;28;20124;-61
2023/06/26 10:35:06;;;;;;;9.98;2.35;;;;;;;26.06;44.97;100947.38;5040240;28;20040;-62
2023/06/26 10:37:48;;;;;;;11.20;3.08;;;;;;;26.06;45.24;100960.59;5034013;28;20041;-64
2023/06/26 10:40:22;;;;;;;8.98;2.30;;;;;;;25.80;44.62;100949.13;5040453;28;20033;-62
2023/06/26 10:42:47;;;;;;;6.35;2.38;;;;;;;25.79;45.49;100965.16;5037479;28;20135;-62
2023/06/26 10:45:28;;;;;;;5.25;2.60;;;;;;;25.94;45.75;100975.56;5035599;28;20144;-63
2023/06/26 10:47:53;;;;;;;7.07;2.75;;;;;;;25.99;45.64;100977.88;5031716;28;20034;-63
2023/06/26 10:50:32;;;;;;;8.93;3.38;;;;;;;25.47;46.26;101002.56;5031959;28;20351;-63
2023/06/26 10:53:20;;;;;;;6.53;2.08;;;;;;;25.75;45.68;100990.13;5038293;28;20045;-62
2023/06/26 10:56:05;;;;;;;6.60;2.40;;;;;;;25.78;44.25;100966.09;5029930;28;20069;-62
2023/06/26 10:58:30;;;;;;;;;;;;;;;25.82;43.30;100970.25;5029618;28;20509;-63
2023/06/26 11:01:11;;;;;;;7.28;2.88;;;;;;;26.12;44.47;100982.22;5034272;28;20035;-62
2023/06/26 11:03:41;;;;;;;6.25;2.63;;;;;;;26.37;44.11;100975.22;5035086;28;20050;-63
2023/06/26 11:06:10;;;;;;;4.55;1.80;;;;;;;26.41;43.58;100966.09;5034205;28;20033;-63
2023/06/26 11:08:46;;;;;;;6.65;2.08;;;;;;;26.55;41.20;100939.44;5033298;28;20026;-63
2023/06/26 11:11:12;;;;;;;3.78;1.73;;;;;;;26.46;40.66;100938.31;5033610;28;20037;-62
2023/06/26 11:13:39;;;;;;;7.20;2.15;;;;;;;26.43;39.84;100929.72;5033889;28;20061;-63
2023/06/26 11:16:05;;;;;;;8.95;2.92;;;;;;;26.44;39.44;100934.09;5012777;28;20074;-62
2023/06/26 11:18:31;;;;;;;7.70;2.30;;;;;;;26.89;39.99;100943.22;5030134;28;20509;-62
2023/06/26 11:21:13;;;;;;;4.72;1.90;;;;;;;27.15;39.42;100942.13;5028291;28;20120;-62
2023/06/26 11:23:39;;;;;;;6.55;2.10;;;;;;;27.52;40.02;100954.34;5031564;28;20140;-63